Time;durP1;ratioP1;P1;durP2;ratioP2;P2;SDS_P1;SDS_P2;PMS_P1;PMS_P2;Temp;Humidity;BMP_temperature;BMP_pressure;BME280_temperature;BME280_humidity;BME280_pressure;Samples;Min_cycle;Max_cycle;Signal;HPM_P1;HPM_P2
2023/12/11 00:00:53;;;;;;;3.53;1.10;;;9.50;20.20;;;;;;5042823;28;20553;-67
2023/12/11 00:03:21;;;;;;;5.67;0.97;;;9.50;20.40;;;;;;5048592;28;20486;-68
2023/12/11 00:05:48;;;;;;;4.67;1.17;;;9.50;20.60;;;;;;5046926;28;20546;-67
2023/12/11 00:08:15;;;;;;;6.63;1.30;;;9.50;20.80;;;;;;5048081;28;20918;-68
2023/12/11 00:10:42;;;;;;;9.17;1.70;;;9.60;20.80;;;;;;5048373;28;20628;-67
2023/12/11 00:13:09;;;;;;;6.40;1.70;;;9.60;20.90;;;;;;5053034;28;20496;-67
2023/12/11 00:15:36;;;;;;;4.30;1.10;;;9.60;21.10;;;;;;5051675;28;20532;-67
2023/12/11 00:18:03;;;;;;;4.10;0.93;;;9.60;21.20;;;;;;5051407;28;20566;-67
2023/12/11 00:20:31;;;;;;;3.63;1.00;;;9.50;21.30;;;;;;5046807;28;20578;-68
2023/12/11 00:22:58;;;;;;;3.87;0.90;;;9.50;21.30;;;;;;5048796;28;20573;-67
2023/12/11 00:25:25;;;;;;;8.87;1.23;;;9.50;21.40;;;;;;5049390;28;20496;-67
2023/12/11 00:27:52;;;;;;;4.77;1.00;;;9.60;21.60;;;;;;5051955;28;20486;-67
2023/12/11 00:30:19;;;;;;;5.00;1.40;;;9.50;21.90;;;;;;5047011;28;20513;-67
2023/12/11 00:32:46;;;;;;;4.13;0.90;;;9.50;22.20;;;;;;5050558;28;20581;-67
2023/12/11 00:35:13;;;;;;;5.60;1.30;;;9.50;22.20;;;;;;5053219;28;20533;-67
2023/12/11 00:37:41;;;;;;;5.00;0.90;;;9.50;22.20;;;;;;5048837;28;20928;-68
2023/12/11 00:40:09;;;;;;;6.90;1.23;;;9.60;22.30;;;;;;5049275;28;20557;-68
2023/12/11 00:42:36;;;;;;;4.67;0.87;;;9.60;22.30;;;;;;5051018;28;20901;-68
2023/12/11 00:45:03;;;;;;;5.23;0.90;;;9.60;22.30;;;;;;5048692;28;20537;-67
2023/12/11 00:47:30;;;;;;;4.57;1.43;;;9.60;22.30;;;;;;5050249;28;20480;-68
2023/12/11 00:49:57;;;;;;;5.17;1.20;;;9.60;22.30;;;;;;5049701;28;20781;-67
2023/12/11 00:52:24;;;;;;;3.80;0.80;;;9.60;22.40;;;;;;5051258;28;20540;-68
2023/12/11 00:54:52;;;;;;;4.97;1.13;;;9.60;22.40;;;;;;5050531;28;20533;-67
2023/12/11 00:57:19;;;;;;;4.60;1.07;;;9.60;22.50;;;;;;5052036;28;20560;-67
2023/12/11 00:59:46;;;;;;;4.80;0.90;;;9.60;22.80;;;;;;5049002;28;20454;-68
2023/12/11 01:02:13;;;;;;;3.37;0.90;;;9.60;23.00;;;;;;5050696;28;20553;-68
2023/12/11 01:04:40;;;;;;;5.30;1.03;;;9.60;23.10;;;;;;5048368;28;20523;-67
2023/12/11 01:07:06;;;;;;;5.77;1.40;;;9.60;23.30;;;;;;5046314;28;21085;-67
2023/12/11 01:09:33;;;;;;;3.53;0.83;;;9.60;23.30;;;;;;5045449;28;20649;-67
2023/12/11 01:12:02;;;;;;;7.83;1.10;;;9.60;23.50;;;;;;5048128;28;20501;-67
2023/12/11 01:14:28;;;;;;;5.17;1.10;;;9.60;23.30;;;;;;5050987;28;20488;-67
2023/12/11 01:16:55;;;;;;;4.93;0.80;;;9.60;23.50;;;;;;5048623;28;20560;-67
2023/12/11 01:19:22;;;;;;;5.53;1.00;;;9.70;23.70;;;;;;5047630;28;20557;-67
2023/12/11 01:21:49;;;;;;;5.00;0.90;;;9.70;23.70;;;;;;5047108;28;21065;-67
2023/12/11 01:24:16;;;;;;;5.00;0.83;;;9.70;23.80;;;;;;5051253;28;20569;-67
2023/12/11 01:26:43;;;;;;;3.63;0.90;;;9.70;23.90;;;;;;5046653;28;20596;-67
2023/12/11 01:29:11;;;;;;;4.83;0.90;;;9.70;24.00;;;;;;5047739;28;20550;-67
2023/12/11 01:31:38;;;;;;;5.60;0.90;;;9.70;24.30;;;;;;5047423;28;20572;-67
2023/12/11 01:34:05;;;;;;;4.27;1.00;;;9.70;24.50;;;;;;5046151;28;20950;-67
2023/12/11 01:36:32;;;;;;;4.90;0.80;;;9.70;24.60;;;;;;5047653;28;21021;-67
2023/12/11 01:38:59;;;;;;;4.60;1.00;;;9.70;24.90;;;;;;5044585;28;20466;-67
2023/12/11 01:41:26;;;;;;;3.70;0.70;;;9.70;25.00;;;;;;5055228;28;20544;-67
2023/12/11 01:43:53;;;;;;;4.60;1.27;;;9.70;25.30;;;;;;5050566;28;20556;-67
2023/12/11 01:46:23;;;;;;;4.80;1.00;;;9.70;25.60;;;;;;5050506;28;20505;-67
2023/12/11 01:48:50;;;;;;;4.43;1.20;;;9.70;25.70;;;;;;5047077;28;20497;-67
2023/12/11 01:51:18;;;;;;;4.47;1.13;;;9.70;25.70;;;;;;5046678;28;20523;-67
2023/12/11 01:53:47;;;;;;;4.40;1.30;;;9.70;26.00;;;;;;5045510;28;20481;-67
2023/12/11 01:56:14;;;;;;;4.57;0.80;;;9.70;26.10;;;;;;5048010;28;20533;-67
2023/12/11 01:58:41;;;;;;;4.50;0.90;;;9.70;26.70;;;;;;5046961;28;20986;-67
2023/12/11 02:01:10;;;;;;;6.10;1.00;;;9.70;26.80;;;;;;5044383;28;20459;-67
2023/12/11 02:03:39;;;;;;;3.70;0.90;;;9.70;27.10;;;;;;5048946;28;20564;-67
2023/12/11 02:06:06;;;;;;;4.57;0.90;;;9.70;27.60;;;;;;5046468;28;20553;-67
2023/12/11 02:08:33;;;;;;;4.03;0.70;;;9.70;27.90;;;;;;5046060;28;20465;-67
2023/12/11 02:11:01;;;;;;;3.97;0.83;;;9.70;28.40;;;;;;5046328;28;20500;-68
2023/12/11 02:13:27;;;;;;;3.40;0.90;;;9.70;28.70;;;;;;5050128;28;20830;-67
2023/12/11 02:15:56;;;;;;;7.83;1.10;;;9.70;29.10;;;;;;5041106;28;20534;-68
2023/12/11 02:18:23;;;;;;;6.33;1.10;;;9.60;29.50;;;;;;5041205;28;20497;-67
2023/12/11 02:20:51;;;;;;;7.80;1.20;;;9.60;29.70;;;;;;5048930;28;20496;-67
2023/12/11 02:23:26;;;;;;;4.20;1.20;;;9.60;30.10;;;;;;5041830;28;21050;-67
2023/12/11 02:26:03;;;;;;;5.30;0.80;;;9.60;30.50;;;;;;5046190;28;20493;-67
2023/12/11 02:28:30;;;;;;;4.57;1.40;;;9.60;30.70;;;;;;5044628;28;20561;-67
2023/12/11 02:30:57;;;;;;;5.63;0.97;;;9.50;31.10;;;;;;5043204;28;20955;-67
2023/12/11 02:33:24;;;;;;;4.03;0.80;;;9.60;31.50;;;;;;5044162;28;20867;-67
2023/12/11 02:35:51;;;;;;;6.67;1.00;;;9.60;31.50;;;;;;5046533;28;20903;-67
2023/12/11 02:38:18;;;;;;;4.00;0.80;;;9.50;31.80;;;;;;5047432;28;20588;-67
2023/12/11 02:40:44;;;;;;;5.13;1.00;;;9.50;32.10;;;;;;5049676;28;20558;-67
2023/12/11 02:43:13;;;;;;;3.93;1.10;;;9.50;32.20;;;;;;5053227;28;20572;-67
2023/12/11 02:45:40;;;;;;;4.13;0.90;;;9.50;32.50;;;;;;5048790;28;20553;-67
2023/12/11 02:48:06;;;;;;;3.60;1.17;;;9.50;32.50;;;;;;5049071;28;20564;-67
2023/12/11 02:50:33;;;;;;;4.40;1.10;;;9.50;32.60;;;;;;5044398;28;21070;-67
2023/12/11 02:53:02;;;;;;;4.13;1.17;;;9.60;32.90;;;;;;5049144;28;20490;-67
2023/12/11 02:55:30;;;;;;;3.50;0.80;;;9.60;33.30;;;;;;5047966;28;20502;-67
2023/12/11 02:57:58;;;;;;;3.80;1.03;;;9.60;33.90;;;;;;5046335;28;20519;-67
2023/12/11 03:00:27;;;;;;;3.83;0.83;;;9.60;33.50;;;;;;5048277;28;20553;-67
2023/12/11 03:02:55;;;;;;;3.30;0.70;;;9.60;34.10;;;;;;5047647;28;21617;-67
2023/12/11 03:05:22;;;;;;;3.40;0.70;;;9.60;33.70;;;;;;5047383;28;20561;-67
2023/12/11 03:07:49;;;;;;;3.93;0.80;;;9.60;34.00;;;;;;5047352;28;20565;-67
2023/12/11 03:10:16;;;;;;;6.13;0.97;;;9.60;33.90;;;;;;5048529;28;20549;-67
2023/12/11 03:12:43;;;;;;;5.80;1.30;;;9.60;34.10;;;;;;5045918;28;20533;-67
2023/12/11 03:15:11;;;;;;;3.70;1.00;;;9.60;34.40;;;;;;5049010;28;20486;-67
2023/12/11 03:17:39;;;;;;;3.93;0.80;;;9.60;34.40;;;;;;5041862;28;20531;-67
2023/12/11 03:20:11;;;;;;;5.37;1.30;;;9.60;34.80;;;;;;5050898;28;20892;-67
2023/12/11 03:22:38;;;;;;;4.13;0.97;;;9.60;35.10;;;;;;5047249;28;20921;-67
2023/12/11 03:25:05;;;;;;;2.90;0.70;;;9.60;35.10;;;;;;5048057;28;20545;-67
2023/12/11 03:27:32;;;;;;;3.20;0.80;;;9.60;35.50;;;;;;5048076;28;20557;-67
2023/12/11 03:29:59;;;;;;;6.53;1.30;;;9.60;35.70;;;;;;5044979;28;21001;-67
2023/12/11 03:32:26;;;;;;;3.00;0.70;;;9.70;36.00;;;;;;5047475;28;20565;-67
2023/12/11 03:34:54;;;;;;;4.53;1.03;;;9.70;36.10;;;;;;5045777;28;20549;-67
2023/12/11 03:37:21;;;;;;;3.23;0.90;;;9.70;36.30;;;;;;5045951;28;20565;-67
2023/12/11 03:39:48;;;;;;;3.70;0.80;;;9.70;36.20;;;;;;5045964;28;21033;-67
2023/12/11 03:42:15;;;;;;;3.53;0.93;;;9.70;36.20;;;;;;5047560;28;20508;-67
2023/12/11 03:44:42;;;;;;;4.40;0.90;;;9.70;36.00;;;;;;5046244;28;20833;-67
2023/12/11 03:47:09;;;;;;;3.23;0.87;;;9.80;36.00;;;;;;5049952;28;20577;-67
2023/12/11 03:49:36;;;;;;;3.03;0.67;;;9.80;36.10;;;;;;5049534;28;20537;-68
2023/12/11 03:52:05;;;;;;;3.80;0.93;;;9.90;36.00;;;;;;5051389;28;20544;-67
2023/12/11 03:54:31;;;;;;;3.17;0.70;;;9.90;36.00;;;;;;5044886;28;20537;-67
2023/12/11 03:56:58;;;;;;;4.47;1.03;;;9.90;35.90;;;;;;5045825;28;20565;-67
2023/12/11 03:59:25;;;;;;;3.40;0.97;;;9.90;35.90;;;;;;5048180;28;20507;-67
2023/12/11 04:01:52;;;;;;;3.43;1.00;;;9.90;36.30;;;;;;5043235;28;20554;-67
2023/12/11 04:04:19;;;;;;;4.13;0.93;;;9.90;36.50;;;;;;5048237;28;20572;-67
2023/12/11 04:06:46;;;;;;;3.53;1.10;;;9.90;36.90;;;;;;5047350;28;20506;-67
2023/12/11 04:09:14;;;;;;;4.43;1.53;;;9.90;36.80;;;;;;5045263;28;20996;-67
2023/12/11 04:11:41;;;;;;;4.23;1.50;;;9.80;37.00;;;;;;5043410;28;20560;-67
2023/12/11 04:14:08;;;;;;;3.97;1.10;;;9.80;37.20;;;;;;5049919;28;20962;-68
2023/12/11 04:16:35;;;;;;;4.67;1.40;;;9.80;37.20;;;;;;5054097;28;21058;-67
2023/12/11 04:19:02;;;;;;;4.07;1.40;;;9.80;37.40;;;;;;5047468;28;21140;-67
2023/12/11 04:21:29;;;;;;;4.20;1.23;;;9.80;37.40;;;;;;5040991;28;20466;-67
2023/12/11 04:23:56;;;;;;;4.57;1.10;;;9.80;37.90;;;;;;5045659;28;20569;-67
2023/12/11 04:26:25;;;;;;;8.20;1.97;;;9.80;38.20;;;;;;5047571;28;20565;-67
2023/12/11 04:28:51;;;;;;;4.40;1.07;;;9.80;38.40;;;;;;5049786;28;20552;-67
2023/12/11 04:31:21;;;;;;;3.67;1.30;;;9.80;38.50;;;;;;5051760;28;20478;-67
2023/12/11 04:33:48;;;;;;;3.90;1.33;;;9.80;38.50;;;;;;5051200;28;20458;-67
2023/12/11 04:36:14;;;;;;;3.10;0.93;;;9.80;38.60;;;;;;5045724;28;20500;-67
2023/12/11 04:38:41;;;;;;;3.50;1.03;;;9.80;39.00;;;;;;5048084;28;20549;-67
2023/12/11 04:41:08;;;;;;;3.97;1.10;;;9.80;39.10;;;;;;5047814;28;20549;-67
2023/12/11 04:43:36;;;;;;;3.73;1.03;;;9.80;39.10;;;;;;5046102;28;20577;-67
2023/12/11 04:46:04;;;;;;;3.60;1.30;;;9.80;39.30;;;;;;5045608;28;20645;-67
2023/12/11 04:48:31;;;;;;;3.87;1.20;;;9.80;39.40;;;;;;5044051;28;20465;-67
2023/12/11 04:50:58;;;;;;;3.83;1.20;;;9.80;39.60;;;;;;5067831;22;20480;-67
2023/12/11 04:53:25;;;;;;;4.10;1.17;;;9.70;39.70;;;;;;5066805;28;20458;-67
2023/12/11 04:55:51;;;;;;;5.77;1.00;;;9.70;39.80;;;;;;5045684;28;20487;-68
2023/12/11 04:58:20;;;;;;;3.47;1.03;;;9.70;39.90;;;;;;5024586;28;20673;-66
2023/12/11 05:00:48;;;;;;;3.40;1.13;;;9.60;39.80;;;;;;5024307;28;20514;-67
2023/12/11 05:03:15;;;;;;;4.37;1.00;;;9.60;40.00;;;;;;5023119;28;20559;-65
2023/12/11 05:05:42;;;;;;;4.97;1.00;;;9.50;40.50;;;;;;5015162;28;20561;-64
2023/12/11 05:08:09;;;;;;;4.13;1.20;;;9.50;39.90;;;;;;5025644;28;20514;-65
2023/12/11 05:10:35;;;;;;;4.97;1.60;;;9.50;39.90;;;;;;5026527;28;21313;-64
2023/12/11 05:13:02;;;;;;;4.13;1.03;;;9.50;39.80;;;;;;5024492;28;20503;-65
2023/12/11 05:15:29;;;;;;;4.23;1.13;;;9.50;39.80;;;;;;5029169;28;20489;-64
2023/12/11 05:17:57;;;;;;;5.43;1.20;;;9.50;39.70;;;;;;5029599;28;20525;-65
2023/12/11 05:20:24;;;;;;;3.80;1.20;;;9.50;39.70;;;;;;5027740;28;20546;-64
2023/12/11 05:22:51;;;;;;;4.80;1.30;;;9.50;39.70;;;;;;5029235;28;20983;-65
2023/12/11 05:25:18;;;;;;;5.67;1.37;;;9.50;39.70;;;;;;5028381;28;20904;-65
2023/12/11 05:27:45;;;;;;;4.70;1.00;;;9.50;39.60;;;;;;5029494;28;20477;-65
2023/12/11 05:30:13;;;;;;;3.60;1.20;;;9.50;39.50;;;;;;5026624;28;20541;-66
2023/12/11 05:32:41;;;;;;;3.50;1.10;;;9.50;39.40;;;;;;5022457;28;20549;-66
2023/12/11 05:35:09;;;;;;;3.90;1.40;;;9.60;39.40;;;;;;5023833;28;20983;-64
2023/12/11 05:37:36;;;;;;;5.00;1.27;;;9.60;39.40;;;;;;5023570;28;20482;-65
2023/12/11 05:40:03;;;;;;;4.03;1.40;;;9.60;39.30;;;;;;5024296;28;20486;-64
2023/12/11 05:42:30;;;;;;;6.40;1.60;;;9.60;39.30;;;;;;5028735;28;20464;-65
2023/12/11 05:44:57;;;;;;;5.30;1.50;;;9.70;39.40;;;;;;5028086;28;20521;-64
2023/12/11 05:47:24;;;;;;;4.20;1.73;;;9.70;39.40;;;;;;5028838;28;20782;-65
2023/12/11 05:49:51;;;;;;;6.37;1.33;;;9.70;39.40;;;;;;5029385;28;20887;-66
2023/12/11 05:52:19;;;;;;;5.60;1.50;;;9.60;39.30;;;;;;5030953;28;20494;-65
2023/12/11 05:54:46;;;;;;;4.50;1.17;;;9.60;39.50;;;;;;5028620;28;20482;-66
2023/12/11 05:57:13;;;;;;;3.70;1.30;;;9.60;39.40;;;;;;5027841;28;20561;-68
2023/12/11 05:59:40;;;;;;;5.27;1.30;;;9.60;39.60;;;;;;5029321;28;20542;-66
2023/12/11 06:02:07;;;;;;;3.50;1.23;;;9.60;39.50;;;;;;5028599;28;20502;-65
2023/12/11 06:04:33;;;;;;;4.20;1.40;;;9.60;39.60;;;;;;5022322;28;20869;-66
2023/12/11 06:07:00;;;;;;;4.10;1.50;;;9.60;39.70;;;;;;5027600;28;20536;-66
2023/12/11 06:09:29;;;;;;;4.00;1.70;;;9.60;39.70;;;;;;5026763;28;20543;-66
2023/12/11 06:11:55;;;;;;;4.83;1.80;;;9.60;39.80;;;;;;5025559;28;20486;-67
2023/12/11 06:14:23;;;;;;;4.37;1.57;;;9.60;39.70;;;;;;5031040;28;20486;-66
2023/12/11 06:16:50;;;;;;;4.33;1.50;;;9.60;39.80;;;;;;5019454;28;20519;-66
2023/12/11 06:19:17;;;;;;;4.40;1.60;;;9.50;39.80;;;;;;5028208;28;20549;-66
2023/12/11 06:21:44;;;;;;;4.63;1.70;;;9.60;39.80;;;;;;5028155;28;20549;-66
2023/12/11 06:24:10;;;;;;;5.43;1.50;;;9.60;39.80;;;;;;5024353;28;20547;-65
2023/12/11 06:26:42;;;;;;;3.80;1.40;;;9.60;39.90;;;;;;5027041;28;20650;-66
2023/12/11 06:29:09;;;;;;;4.40;1.90;;;9.60;40.00;;;;;;5022830;28;20831;-66
2023/12/11 06:31:36;;;;;;;3.80;1.50;;;9.60;39.90;;;;;;5024486;28;21018;-65
2023/12/11 06:34:03;;;;;;;3.57;1.30;;;9.60;40.10;;;;;;5024834;28;20542;-67
2023/12/11 06:36:30;;;;;;;3.90;1.20;;;9.60;40.10;;;;;;5022158;28;20487;-65
2023/12/11 06:38:57;;;;;;;3.67;1.27;;;9.60;40.20;;;;;;5026868;28;20543;-66
2023/12/11 06:41:23;;;;;;;4.50;1.50;;;9.60;40.20;;;;;;5025547;28;20560;-66
2023/12/11 06:43:53;;;;;;;3.37;1.07;;;9.60;40.20;;;;;;5023323;28;20597;-65
2023/12/11 06:46:20;;;;;;;3.70;1.23;;;9.60;40.50;;;;;;5027482;28;21043;-65
2023/12/11 06:48:47;;;;;;;4.43;1.20;;;9.60;40.60;;;;;;5024254;28;20499;-65
2023/12/11 06:51:16;;;;;;;5.87;1.40;;;9.60;40.60;;;;;;5027605;28;20605;-65
2023/12/11 06:53:43;;;;;;;3.37;1.00;;;9.60;40.70;;;;;;5024854;28;21127;-65
2023/12/11 06:56:18;;;;;;;3.40;1.10;;;9.70;40.80;;;;;;5023049;28;20491;-65
2023/12/11 06:58:45;;;;;;;4.73;1.20;;;9.70;41.00;;;;;;5029320;28;20481;-65
2023/12/11 07:01:13;;;;;;;4.00;1.30;;;9.70;41.10;;;;;;5019208;28;20557;-67
2023/12/11 07:03:40;;;;;;;4.30;1.10;;;9.60;41.10;;;;;;5025717;28;20491;-67
2023/12/11 07:06:08;;;;;;;4.10;1.20;;;9.70;41.10;;;;;;5027205;28;20831;-64
2023/12/11 07:08:36;;;;;;;3.70;0.93;;;9.70;41.10;;;;;;5024228;28;20900;-68
2023/12/11 07:11:03;;;;;;;3.97;1.10;;;9.70;41.30;;;;;;5028697;28;20491;-66
2023/12/11 07:13:30;;;;;;;3.23;0.87;;;9.70;41.40;;;;;;5026377;28;20538;-65
2023/12/11 07:15:58;;;;;;;4.20;1.20;;;9.70;41.50;;;;;;5026262;28;20455;-66
2023/12/11 07:18:26;;;;;;;4.03;1.47;;;9.70;41.60;;;;;;5028279;28;20581;-65
2023/12/11 07:20:53;;;;;;;3.97;1.23;;;9.80;41.50;;;;;;5026203;28;20542;-65
2023/12/11 07:23:21;;;;;;;3.20;0.90;;;9.80;41.70;;;;;;5029286;28;20578;-66
2023/12/11 07:25:47;;;;;;;5.00;1.10;;;9.80;41.80;;;;;;5027129;28;20740;-65
2023/12/11 07:28:14;;;;;;;3.20;0.93;;;9.80;41.90;;;;;;5029425;28;20650;-64
2023/12/11 07:30:41;;;;;;;4.97;1.30;;;9.90;41.90;;;;;;5025220;28;20493;-64
2023/12/11 07:33:08;;;;;;;3.13;1.03;;;9.90;41.70;;;;;;5025034;28;20495;-67
2023/12/11 07:35:36;;;;;;;4.47;1.50;;;10.00;41.80;;;;;;5025702;28;20455;-65
2023/12/11 07:38:03;;;;;;;3.60;1.20;;;10.00;41.70;;;;;;5024176;28;20479;-65
2023/12/11 07:40:30;;;;;;;3.50;1.23;;;10.00;41.60;;;;;;5023765;28;21003;-65
2023/12/11 07:42:57;;;;;;;4.40;1.37;;;10.00;41.70;;;;;;5023498;28;20447;-65
2023/12/11 07:45:25;;;;;;;9.93;1.73;;;10.00;41.80;;;;;;5033374;28;20500;-66
2023/12/11 07:47:51;;;;;;;3.17;1.03;;;10.10;41.80;;;;;;5045880;28;20542;-65
2023/12/11 07:50:18;;;;;;;3.50;1.13;;;10.10;41.70;;;;;;5027340;28;20505;-65
2023/12/11 07:52:47;;;;;;;3.77;1.30;;;10.10;41.70;;;;;;5026996;28;20554;-65
2023/12/11 07:55:13;;;;;;;4.60;1.40;;;10.10;41.70;;;;;;5020520;28;20497;-65
2023/12/11 07:57:41;;;;;;;4.10;1.30;;;10.20;41.60;;;;;;5026864;28;20559;-66
2023/12/11 08:00:08;;;;;;;4.43;1.50;;;10.20;41.50;;;;;;5025581;28;20467;-67
2023/12/11 08:02:36;;;;;;;3.60;1.30;;;10.20;41.50;;;;;;5018047;28;20634;-67
2023/12/11 08:05:03;;;;;;;5.73;1.40;;;10.20;41.40;;;;;;5017552;28;20578;-67
2023/12/11 08:07:31;;;;;;;4.07;1.47;;;10.30;41.20;;;;;;5017521;28;20487;-68
2023/12/11 08:10:00;;;;;;;4.13;1.70;;;10.30;41.10;;;;;;5024259;28;20487;-67
2023/12/11 08:12:27;;;;;;;4.40;1.70;;;10.30;41.10;;;;;;5026991;28;20942;-67
2023/12/11 08:14:54;;;;;;;5.07;1.60;;;10.30;41.00;;;;;;5026610;28;20486;-66
2023/12/11 08:17:20;;;;;;;5.37;1.53;;;10.30;40.90;;;;;;5025178;28;20511;-66
2023/12/11 08:19:47;;;;;;;3.70;1.50;;;10.30;40.70;;;;;;5018617;28;20548;-66
2023/12/11 08:22:15;;;;;;;3.60;1.30;;;10.40;40.70;;;;;;5021999;28;20503;-66
2023/12/11 08:24:41;;;;;;;3.80;1.50;;;10.40;40.40;;;;;;5023496;28;20895;-66
2023/12/11 08:27:10;;;;;;;3.90;1.60;;;10.50;40.30;;;;;;5021389;28;20514;-66
2023/12/11 08:29:37;;;;;;;3.67;1.30;;;10.50;40.20;;;;;;5020776;28;20556;-65
2023/12/11 08:32:05;;;;;;;3.60;1.30;;;10.50;40.00;;;;;;5021227;28;20582;-66
2023/12/11 08:34:32;;;;;;;5.13;1.37;;;10.50;39.90;;;;;;5021355;28;21030;-65
2023/12/11 08:36:59;;;;;;;4.47;1.60;;;10.50;39.70;;;;;;5022456;28;20502;-65
2023/12/11 08:39:26;;;;;;;4.00;1.40;;;10.50;39.60;;;;;;5019642;28;20558;-65
2023/12/11 08:41:53;;;;;;;4.07;1.50;;;10.50;39.60;;;;;;5020128;28;20542;-65
2023/12/11 08:44:21;;;;;;;4.67;1.97;;;10.50;39.60;;;;;;5022058;28;20514;-65
2023/12/11 08:46:48;;;;;;;5.40;2.00;;;10.50;39.50;;;;;;5020782;28;20581;-65
2023/12/11 08:49:15;;;;;;;5.83;2.13;;;10.50;39.40;;;;;;5022874;28;21445;-65
2023/12/11 08:51:42;;;;;;;4.80;1.70;;;10.50;39.50;;;;;;5024884;28;20558;-65
2023/12/11 08:54:09;;;;;;;5.73;2.20;;;10.50;39.50;;;;;;5028588;28;20502;-63
2023/12/11 08:56:36;;;;;;;6.27;2.20;;;10.50;39.40;;;;;;5024727;28;20573;-65
2023/12/11 08:59:03;;;;;;;4.90;2.57;;;10.50;39.60;;;;;;5026086;28;20549;-65
2023/12/11 09:01:34;;;;;;;6.77;2.43;;;10.50;39.40;;;;;;5024905;28;20554;-65
2023/12/11 09:04:01;;;;;;;4.50;1.77;;;10.50;39.50;;;;;;5021488;28;20946;-65
2023/12/11 09:06:28;;;;;;;4.33;2.00;;;10.60;39.40;;;;;;5019735;28;20570;-65
2023/12/11 09:08:55;;;;;;;4.73;1.93;;;10.50;39.40;;;;;;5021918;28;21031;-66
2023/12/11 09:11:22;;;;;;;5.20;2.00;;;10.50;39.30;;;;;;5026048;28;20486;-66
2023/12/11 09:13:49;;;;;;;5.30;2.27;;;10.60;39.20;;;;;;5021705;28;20559;-66
2023/12/11 09:16:16;;;;;;;4.10;1.77;;;10.60;39.30;;;;;;5025780;28;20840;-66
2023/12/11 09:18:44;;;;;;;4.70;1.70;;;10.60;39.10;;;;;;5027865;28;20483;-66
2023/12/11 09:21:11;;;;;;;4.00;1.80;;;10.70;39.10;;;;;;5028905;28;20490;-66
2023/12/11 09:23:38;;;;;;;3.90;1.77;;;10.70;39.00;;;;;;5028845;28;21010;-65
2023/12/11 09:26:05;;;;;;;3.97;1.63;;;10.80;38.80;;;;;;5029567;28;20541;-66
2023/12/11 09:28:32;;;;;;;4.23;1.93;;;10.80;38.70;;;;;;5029935;28;20507;-66
2023/12/11 09:30:59;;;;;;;5.03;2.10;;;10.80;38.40;;;;;;5029053;28;21098;-66
2023/12/11 09:33:26;;;;;;;6.07;2.10;;;10.80;38.50;;;;;;5029934;28;20474;-65
2023/12/11 09:35:55;;;;;;;5.40;2.50;;;10.80;38.40;;;;;;5025134;28;20487;-66
2023/12/11 09:38:22;;;;;;;4.70;2.20;;;10.80;39.00;;;;;;5012135;28;20486;-65
2023/12/11 09:40:49;;;;;;;4.30;2.30;;;10.80;38.40;;;;;;5032665;28;21034;-67
2023/12/11 09:43:18;;;;;;;7.20;3.90;;;10.80;38.50;;;;;;5048170;22;20596;-67
2023/12/11 09:45:47;;;;;;;5.17;2.40;;;10.80;38.40;;;;;;5046161;28;20556;-67
2023/12/11 09:48:13;;;;;;;4.63;1.90;;;10.80;38.40;;;;;;5050578;28;20572;-67
2023/12/11 09:50:41;;;;;;;4.37;1.80;;;10.80;38.40;;;;;;5048769;28;20482;-67
2023/12/11 09:53:09;;;;;;;3.80;1.53;;;10.80;38.40;;;;;;5053418;28;20446;-67
2023/12/11 09:55:36;;;;;;;4.60;1.60;;;10.70;38.50;;;;;;5046092;28;20482;-67
2023/12/11 09:58:04;;;;;;;3.90;1.40;;;10.70;38.50;;;;;;5051313;28;20482;-66
2023/12/11 10:00:32;;;;;;;5.97;1.20;;;10.70;38.50;;;;;;5046759;28;20461;-67
2023/12/11 10:03:05;;;;;;;3.90;1.10;;;10.70;38.60;;;;;;5047020;28;20501;-68
2023/12/11 10:05:34;;;;;;;4.10;1.07;;;10.70;38.50;;;;;;5049957;28;21008;-67
2023/12/11 10:08:01;;;;;;;3.73;0.93;;;10.70;38.60;;;;;;5047671;28;20492;-65
2023/12/11 10:10:32;;;;;;;3.37;0.90;;;10.80;38.60;;;;;;5048299;28;20516;-64
2023/12/11 10:12:59;;;;;;;3.60;1.13;;;10.80;38.60;;;;;;5048829;28;20460;-64
2023/12/11 10:15:28;;;;;;;4.20;1.20;;;10.80;38.60;;;;;;5045899;28;20466;-64
2023/12/11 10:18:03;;;;;;;4.03;1.00;;;10.80;38.50;;;;;;5045332;28;20563;-65
2023/12/11 10:20:30;;;;;;;3.60;1.10;;;10.80;38.60;;;;;;5044432;28;20476;-66
2023/12/11 10:22:57;;;;;;;3.80;1.20;;;10.90;38.40;;;;;;5047831;28;20466;-65
2023/12/11 10:25:26;;;;;;;4.17;1.20;;;11.00;38.30;;;;;;5046712;28;20573;-65
2023/12/11 10:28:05;;;;;;;3.47;0.90;;;11.00;38.30;;;;;;5048780;28;20558;-65
2023/12/11 10:30:32;;;;;;;3.40;0.70;;;11.00;38.30;;;;;;5040101;28;20541;-66
2023/12/11 10:33:02;;;;;;;4.67;1.13;;;11.10;38.20;;;;;;5047713;28;20896;-65
2023/12/11 10:35:29;;;;;;;3.00;0.70;;;11.10;38.10;;;;;;5043814;28;21151;-65
2023/12/11 10:38:01;;;;;;;3.50;0.80;;;11.10;37.90;;;;;;5041865;28;20497;-65
2023/12/11 10:40:37;;;;;;;3.30;0.93;;;11.10;38.00;;;;;;5041905;28;20462;-64
2023/12/11 10:43:05;;;;;;;3.10;0.80;;;11.20;38.00;;;;;;5040089;28;20470;-65
2023/12/11 10:45:33;;;;;;;4.83;0.70;;;11.20;37.80;;;;;;5044540;28;20563;-65
2023/12/11 10:48:01;;;;;;;3.40;0.80;;;11.20;38.00;;;;;;5046373;28;21038;-66
2023/12/11 10:50:28;;;;;;;3.03;0.70;;;11.20;37.80;;;;;;5043685;28;21008;-66
2023/12/11 10:52:55;;;;;;;3.10;0.60;;;11.20;38.30;;;;;;5043898;28;20466;-65
2023/12/11 10:55:22;;;;;;;4.03;0.80;;;11.30;37.70;;;;;;5047207;28;20511;-65
2023/12/11 10:57:51;;;;;;;3.30;0.80;;;11.30;37.60;;;;;;5046360;28;20616;-65
2023/12/11 11:00:20;;;;;;;3.63;0.70;;;11.30;37.50;;;;;;5042059;28;20565;-65
2023/12/11 11:02:51;;;;;;;3.60;0.70;;;11.30;37.50;;;;;;5045112;28;20535;-64
2023/12/11 11:05:19;;;;;;;3.07;0.70;;;11.40;37.50;;;;;;5044100;28;20481;-64
2023/12/11 11:07:51;;;;;;;3.40;0.80;;;11.40;37.40;;;;;;5045675;28;20509;-65
2023/12/11 11:10:21;;;;;;;3.70;1.00;;;11.40;37.30;;;;;;5047260;28;20454;-66
2023/12/11 11:12:57;;;;;;;3.80;1.10;;;11.40;37.20;;;;;;5048075;28;20458;-66
2023/12/11 11:15:26;;;;;;;3.20;0.83;;;11.50;37.20;;;;;;5045934;28;20544;-66
2023/12/11 11:17:59;;;;;;;6.00;1.27;;;11.60;37.00;;;;;;5045736;28;20549;-65
2023/12/11 11:20:26;;;;;;;3.03;0.73;;;11.60;36.60;;;;;;5046326;28;20549;-65
2023/12/11 11:23:13;;;;;;;3.73;0.83;;;11.70;36.30;;;;;;5038977;22;20484;-69
2023/12/11 11:25:41;;;;;;;3.50;0.90;;;11.70;36.10;;;;;;5033417;28;20489;-69
2023/12/11 11:28:28;;;;;;;3.87;1.10;;;11.70;35.80;;;;;;5053904;22;20565;-66
2023/12/11 11:30:56;;;;;;;3.97;0.63;;;11.80;35.70;;;;;;5061499;28;20465;-64
2023/12/11 11:33:23;;;;;;;3.00;0.70;;;11.80;34.90;;;;;;5066997;28;20469;-65
2023/12/11 11:35:52;;;;;;;3.30;0.60;;;11.70;34.80;;;;;;5062173;28;20886;-65
2023/12/11 11:38:20;;;;;;;4.03;0.83;;;11.60;34.60;;;;;;5068732;28;20477;-65
2023/12/11 11:40:51;;;;;;;4.77;0.70;;;11.60;34.30;;;;;;5063110;28;20867;-65
2023/12/11 11:43:18;;;;;;;3.50;0.80;;;11.60;34.50;;;;;;5074561;22;20497;-67
2023/12/11 11:45:45;;;;;;;3.30;0.90;;;11.60;34.50;;;;;;5063384;28;20482;-67
2023/12/11 11:48:13;;;;;;;2.80;0.60;;;11.60;35.00;;;;;;5060031;28;20569;-67
2023/12/11 11:50:51;;;;;;;3.20;0.70;;;11.70;33.60;;;;;;5064023;28;20568;-67
2023/12/11 11:53:20;;;;;;;3.40;0.90;;;11.70;33.50;;;;;;5070356;28;20453;-67
2023/12/11 11:55:47;;;;;;;5.43;0.80;;;11.70;33.90;;;;;;5065583;28;20454;-67
2023/12/11 11:58:15;;;;;;;3.20;0.67;;;11.70;33.00;;;;;;5068298;28;20485;-67
2023/12/11 12:00:42;;;;;;;3.50;0.60;;;11.70;32.50;;;;;;5060309;28;20560;-67
2023/12/11 12:03:09;;;;;;;3.20;0.53;;;11.70;32.30;;;;;;5061787;28;20473;-67
2023/12/11 12:05:38;;;;;;;3.40;0.70;;;11.70;32.10;;;;;;5079106;28;20484;-67
2023/12/11 12:08:08;;;;;;;3.10;0.50;;;11.70;31.90;;;;;;5064151;28;20484;-68
2023/12/11 12:10:35;;;;;;;3.40;1.10;;;11.80;31.00;;;;;;5062990;28;20457;-69
2023/12/11 12:13:03;;;;;;;3.43;0.87;;;11.80;31.00;;;;;;5063886;28;20568;-67
2023/12/11 12:15:31;;;;;;;3.07;0.50;;;11.70;31.00;;;;;;5057277;28;21389;-66
2023/12/11 12:18:07;;;;;;;3.37;0.90;;;11.80;30.80;;;;;;5060241;28;20481;-70
2023/12/11 12:20:34;;;;;;;3.50;0.60;;;11.70;31.00;;;;;;5058327;28;20457;-70
2023/12/11 12:23:03;;;;;;;3.30;0.70;;;11.80;30.80;;;;;;5057917;28;20456;-70
2023/12/11 12:25:32;;;;;;;3.10;0.60;;;11.80;30.70;;;;;;5060785;28;20477;-69
2023/12/11 12:28:03;;;;;;;3.73;0.60;;;11.90;30.10;;;;;;5062190;28;20477;-71
2023/12/11 12:30:30;;;;;;;3.07;0.60;;;11.80;30.40;;;;;;5059326;28;20464;-71
2023/12/11 12:32:58;;;;;;;2.80;0.47;;;11.90;29.70;;;;;;5062673;28;20461;-72
2023/12/11 12:35:26;;;;;;;2.97;0.60;;;11.90;29.20;;;;;;5062282;28;20819;-70
2023/12/11 12:37:53;;;;;;;3.10;0.40;;;11.90;28.90;;;;;;5063863;28;20495;-71
2023/12/11 12:40:21;;;;;;;2.90;0.50;;;11.90;28.80;;;;;;5060298;28;20544;-71
2023/12/11 12:42:48;;;;;;;3.50;0.77;;;11.90;28.70;;;;;;5057083;28;20461;-66
2023/12/11 12:45:25;;;;;;;3.27;0.70;;;11.90;28.40;;;;;;5057473;28;20935;-66
2023/12/11 12:47:52;;;;;;;3.00;0.60;;;11.90;28.40;;;;;;5059253;28;20480;-69
2023/12/11 12:50:20;;;;;;;3.20;0.90;;;11.90;28.30;;;;;;5055771;28;20548;-69
2023/12/11 12:52:47;;;;;;;3.20;0.83;;;11.90;28.50;;;;;;5061269;28;20465;-69
2023/12/11 12:55:13;;;;;;;3.33;0.80;;;11.90;27.90;;;;;;5065867;28;20456;-68